createdAt,value
2022-11-16T00:00:13.006Z,97473.44
2022-11-16T00:01:21.031Z,97466.56
2022-11-16T00:02:23.939Z,97469.28
2022-11-16T00:03:26.767Z,97463.25
2022-11-16T00:04:29.381Z,97472.16
2022-11-16T00:05:32.295Z,97466.56
2022-11-16T00:06:35.272Z,97465.97
2022-11-16T00:07:37.979Z,97466.84
2022-11-16T00:08:43.601Z,97460.06
2022-11-16T00:09:46.997Z,97461.38
2022-11-16T00:10:49.781Z,97463.37
2022-11-16T00:12:01.672Z,97461.38
2022-11-16T00:13:04.225Z,97462.53
2022-11-16T00:14:07.430Z,97454.78
2022-11-16T00:15:10.247Z,97452.63
2022-11-16T00:16:18.309Z,97449.31
2022-11-16T00:17:21.117Z,97451.59
2022-11-16T00:18:24.336Z,97452.19
2022-11-16T00:19:27.816Z,97455.06
2022-11-16T00:20:30.457Z,97450.34
2022-11-16T00:21:33.679Z,97451.03
2022-11-16T00:22:36.391Z,97448.88
2022-11-16T00:23:39.732Z,97453.06
2022-11-16T00:24:42.368Z,97448.03
2022-11-16T00:25:45.290Z,97441.28
2022-11-16T00:26:49.268Z,97451.78
2022-11-16T00:27:51.937Z,97450.34
2022-11-16T00:28:55.888Z,97444.88
2022-11-16T00:29:58.698Z,97441.00
2022-11-16T00:31:03.988Z,97442.13
2022-11-16T00:32:06.810Z,97438.97
2022-11-16T00:33:16.316Z,97444.16
2022-11-16T00:34:19.570Z,97442.84
2022-11-16T00:35:22.427Z,97431.94
2022-11-16T00:36:25.352Z,97431.34
2022-11-16T00:37:28.094Z,97433.78
2022-11-16T00:38:31.105Z,97428.59
2022-11-16T00:39:34.564Z,97427.78
2022-11-16T00:40:37.340Z,97425.59
2022-11-16T00:41:40.548Z,97433.22
2022-11-16T00:42:43.474Z,97425.59
2022-11-16T00:43:46.551Z,97420.56
2022-11-16T00:44:49.220Z,97417.69
2022-11-16T00:45:51.883Z,97415.38
2022-11-16T00:46:54.746Z,97417.41
2022-11-16T00:48:00.494Z,97410.22
2022-11-16T00:49:04.053Z,97405.78
2022-11-16T00:50:08.638Z,97412.09
2022-11-16T00:51:11.593Z,97405.94
2022-11-16T00:52:14.321Z,97397.56
2022-11-16T00:53:20.289Z,97398.03
2022-11-16T00:54:23.613Z,97397.56
2022-11-16T00:55:26.372Z,97396.00
2022-11-16T00:56:29.290Z,97397.28
2022-11-16T00:57:32.180Z,97400.00
2022-11-16T00:58:35.075Z,97392.56
2022-11-16T00:59:37.965Z,97401.03
2022-11-16T01:00:41.644Z,97400.47
2022-11-16T01:01:44.620Z,97400.47
2022-11-16T01:02:47.551Z,97399.00
2022-11-16T01:03:50.344Z,97396.44
2022-11-16T01:04:53.293Z,97400.47
2022-11-16T01:06:10.821Z,97395.28
2022-11-16T01:07:14.328Z,97394.56
2022-11-16T01:08:17.211Z,97396.56
2022-11-16T01:09:19.900Z,97396.44
2022-11-16T01:10:24.089Z,97400.59
2022-11-16T01:11:45.492Z,97400.00
2022-11-16T01:12:49.901Z,97394.44
2022-11-16T01:13:53.693Z,97394.44
2022-11-16T01:14:56.455Z,97388.81
2022-11-16T01:15:59.149Z,97384.94
2022-11-16T01:17:01.935Z,97382.91
2022-11-16T01:18:04.698Z,97386.66
2022-11-16T01:19:08.083Z,97373.72
2022-11-16T01:20:24.448Z,97373.97
2022-11-16T01:21:27.766Z,97375.28
2022-11-16T01:22:30.435Z,97372.13
2022-11-16T01:23:33.386Z,97369.97
2022-11-16T01:24:36.171Z,97362.63
2022-11-16T01:25:39.017Z,97363.81
2022-11-16T01:26:41.871Z,97365.66
2022-11-16T01:27:44.870Z,97359.34
2022-11-16T01:28:47.567Z,97364.81
2022-11-16T01:29:50.371Z,97359.47
2022-11-16T01:30:53.090Z,97360.19
2022-11-16T01:31:58.049Z,97358.75
2022-11-16T01:33:00.774Z,97353.31
2022-11-16T01:34:03.810Z,97353.47
2022-11-16T01:35:07.734Z,97352.72
2022-11-16T01:36:15.013Z,97360.78
2022-11-16T01:37:18.520Z,97354.19
2022-11-16T01:38:23.889Z,97351.44
2022-11-16T01:39:28.953Z,97358.34
2022-11-16T01:40:31.870Z,97357.63
2022-11-16T01:41:35.110Z,97356.31
2022-11-16T01:42:37.844Z,97348.84
2022-11-16T01:43:56.174Z,97347.53
2022-11-16T01:45:06.397Z,97347.41
2022-11-16T01:46:09.336Z,97347.13
2022-11-16T01:47:14.055Z,97346.25
2022-11-16T01:48:22.208Z,97344.38
2022-11-16T01:49:28.516Z,97343.81
2022-11-16T01:50:31.385Z,97340.34
2022-11-16T01:51:35.022Z,97338.94
2022-11-16T01:52:44.627Z,97331.56
2022-11-16T01:53:47.415Z,97331.03
2022-11-16T01:54:53.844Z,97325.69
2022-11-16T01:55:56.866Z,97333.75
2022-11-16T01:57:04.289Z,97337.75
2022-11-16T01:58:07.606Z,97324.66
2022-11-16T01:59:11.363Z,97329.12
2022-11-16T02:00:15.085Z,97327.53
2022-11-16T02:01:17.950Z,97327.38
2022-11-16T02:02:20.873Z,97329.12
2022-11-16T02:03:23.593Z,97320.78
2022-11-16T02:04:26.283Z,97315.75
2022-11-16T02:05:42.774Z,97315.19
2022-11-16T02:07:17.389Z,97318.91
2022-11-16T02:09:22.271Z,97322.97
2022-11-16T02:10:43.867Z,97321.38
2022-11-16T02:12:34.848Z,97318.78
2022-11-16T02:14:11.768Z,97316.63
2022-11-16T02:15:43.754Z,97319.50
2022-11-16T02:16:58.173Z,97315.03
2022-11-16T02:18:21.882Z,97312.63
2022-11-16T02:20:02.164Z,97307.59
2022-11-16T02:21:14.276Z,97312.19
2022-11-16T02:22:29.431Z,97312.91
2022-11-16T02:24:04.462Z,97305.56
2022-11-16T02:25:23.450Z,97299.09
2022-11-16T02:27:04.123Z,97297.66
2022-11-16T02:28:35.649Z,97298.09
2022-11-16T02:29:43.257Z,97290.88
2022-11-16T02:30:51.201Z,97295.34
2022-11-16T02:32:23.308Z,97294.06
2022-11-16T02:33:33.391Z,97287.03
2022-11-16T02:34:49.650Z,97289.34
2022-11-16T02:35:56.339Z,97288.34
2022-11-16T02:37:03.458Z,97290.34
2022-11-16T02:38:12.625Z,97279.44
2022-11-16T02:39:20.130Z,97286.75
2022-11-16T02:40:25.948Z,97282.00
2022-11-16T02:41:34.404Z,97282.88
2022-11-16T02:42:45.679Z,97287.16
2022-11-16T02:44:02.110Z,97279.97
2022-11-16T02:45:09.176Z,97276.53
2022-11-16T02:46:28.032Z,97284.59
2022-11-16T02:47:33.467Z,97279.84
2022-11-16T02:48:42.607Z,97275.09
2022-11-16T02:49:50.503Z,97272.25
2022-11-16T02:50:54.166Z,97277.81
2022-11-16T02:51:59.296Z,97280.69
2022-11-16T02:53:03.393Z,97270.75
2022-11-16T02:54:17.752Z,97269.88
2022-11-16T02:55:20.569Z,97276.22
2022-11-16T02:56:24.172Z,97273.37
2022-11-16T02:57:32.731Z,97276.41
2022-11-16T02:58:35.761Z,97268.62
2022-11-16T02:59:44.771Z,97271.53
2022-11-16T03:00:56.559Z,97267.09
2022-11-16T03:02:08.540Z,97262.06
2022-11-16T03:03:18.849Z,97264.91
2022-11-16T03:04:44.370Z,97265.63
2022-11-16T03:05:52.792Z,97266.47
2022-11-16T03:06:58.393Z,97259.84
2022-11-16T03:08:17.903Z,97260.16
2022-11-16T03:09:31.133Z,97259.31
2022-11-16T03:10:57.570Z,97259.72
2022-11-16T03:12:03.458Z,97258.59
2022-11-16T03:13:08.618Z,97259.50
2022-11-16T03:14:17.738Z,97262.22
2022-11-16T03:15:20.822Z,97259.03
2022-11-16T03:16:46.298Z,97261.75
2022-11-16T03:17:50.532Z,97264.37
2022-11-16T03:18:58.461Z,97263.78
2022-11-16T03:20:12.991Z,97260.62
2022-11-16T03:21:26.016Z,97258.47
2022-11-16T03:22:45.409Z,97260.91
2022-11-16T03:23:48.497Z,97252.84
2022-11-16T03:24:51.419Z,97249.09
2022-11-16T03:25:57.267Z,97243.34
2022-11-16T03:27:40.772Z,97240.91
2022-11-16T03:29:02.210Z,97241.91
2022-11-16T03:30:23.613Z,97241.63
2022-11-16T03:31:35.153Z,97241.91
2022-11-16T03:33:02.072Z,97239.78
2022-11-16T03:34:11.641Z,97231.59
2022-11-16T03:35:28.329Z,97232.84
2022-11-16T03:36:38.889Z,97236.75
2022-11-16T03:37:43.371Z,97239.06
2022-11-16T03:38:48.095Z,97233.59
2022-11-16T03:39:53.224Z,97227.84
2022-11-16T03:41:08.945Z,97232.44
2022-11-16T03:42:16.715Z,97232.00
2022-11-16T03:43:21.019Z,97226.37
2022-11-16T03:44:23.949Z,97220.59
2022-11-16T03:45:27.210Z,97221.91
2022-11-16T03:46:29.972Z,97217.47
2022-11-16T03:47:32.984Z,97215.47
2022-11-16T03:48:38.826Z,97218.06
2022-11-16T03:49:46.295Z,97219.03
2022-11-16T03:50:49.853Z,97218.03
2022-11-16T03:51:52.609Z,97213.72
2022-11-16T03:52:55.286Z,97224.38
2022-11-16T03:53:58.022Z,97216.91
2022-11-16T03:55:00.872Z,97217.63
2022-11-16T03:56:03.836Z,97218.50
2022-11-16T03:57:06.688Z,97204.72
2022-11-16T03:58:09.369Z,97206.00
2022-11-16T03:59:12.169Z,97211.16
2022-11-16T04:00:15.258Z,97211.75
2022-11-16T04:01:18.005Z,97217.94
2022-11-16T04:02:21.009Z,97218.37
2022-11-16T04:03:23.729Z,97206.41
2022-11-16T04:04:45.223Z,97203.25
2022-11-16T04:06:06.941Z,97205.84
2022-11-16T04:07:28.738Z,97198.66
2022-11-16T04:08:50.589Z,97194.50
2022-11-16T04:10:11.850Z,97196.78
2022-11-16T04:11:35.569Z,97197.06
2022-11-16T04:13:01.608Z,97193.03
2022-11-16T04:14:23.907Z,97192.34
2022-11-16T04:15:45.345Z,97190.16
2022-11-16T04:17:06.641Z,97182.94
2022-11-16T04:18:29.448Z,97185.69
2022-11-16T04:19:54.033Z,97182.69
2022-11-16T04:21:19.649Z,97181.13
2022-11-16T04:22:46.049Z,97182.13
2022-11-16T04:24:07.968Z,97170.19
2022-11-16T04:25:21.774Z,97186.72
2022-11-16T04:26:45.532Z,97177.53
2022-11-16T04:28:07.139Z,97187.31
2022-11-16T04:29:10.208Z,97182.56
2022-11-16T04:30:13.419Z,97183.97
2022-11-16T04:31:34.658Z,97179.94
2022-11-16T04:32:56.006Z,97179.81
2022-11-16T04:34:17.290Z,97175.38
2022-11-16T04:35:38.372Z,97170.63
2022-11-16T04:36:59.699Z,97176.38
2022-11-16T04:38:02.546Z,97168.63
2022-11-16T04:39:05.651Z,97164.59
2022-11-16T04:40:09.563Z,97176.25
2022-11-16T04:41:32.610Z,97169.62
2022-11-16T04:42:35.411Z,97175.66
2022-11-16T04:43:38.151Z,97166.59
2022-11-16T04:44:59.643Z,97160.00
2022-11-16T04:46:20.887Z,97165.03
2022-11-16T04:47:24.229Z,97160.00
2022-11-16T04:48:26.873Z,97171.09
2022-11-16T04:49:29.644Z,97167.06
2022-11-16T04:50:33.581Z,97174.53
2022-11-16T04:51:36.291Z,97174.81
2022-11-16T04:52:39.091Z,97153.41
2022-11-16T04:53:41.992Z,97162.44
2022-11-16T04:54:44.846Z,97168.50
2022-11-16T04:55:50.552Z,97171.94
2022-11-16T04:56:53.215Z,97173.84
2022-11-16T04:57:55.887Z,97173.84
2022-11-16T04:58:58.596Z,97165.19
2022-11-16T05:00:01.224Z,97168.78
2022-11-16T05:01:04.305Z,97175.66
2022-11-16T05:02:10.170Z,97167.19
2022-11-16T05:03:13.405Z,97168.50
2022-11-16T05:04:16.182Z,97157.37
2022-11-16T05:05:19.401Z,97157.13
2022-11-16T05:06:22.354Z,97161.59
2022-11-16T05:07:25.270Z,97169.94
2022-11-16T05:08:28.072Z,97158.66
2022-11-16T05:09:30.760Z,97155.94
2022-11-16T05:10:33.547Z,97158.50
2022-11-16T05:11:36.222Z,97167.00
2022-11-16T05:12:39.127Z,97161.00
2022-11-16T05:13:41.711Z,97152.78
2022-11-16T05:14:44.597Z,97154.53
2022-11-16T05:15:47.322Z,97167.47
2022-11-16T05:16:50.322Z,97161.28
2022-11-16T05:17:55.062Z,97162.00
2022-11-16T05:19:16.617Z,97149.47
2022-11-16T05:20:38.107Z,97159.09
2022-11-16T05:21:40.750Z,97155.12
2022-11-16T05:22:43.550Z,97156.56
2022-11-16T05:24:15.276Z,97154.22
2022-11-16T05:25:18.372Z,97148.16
2022-11-16T05:26:21.066Z,97152.22
2022-11-16T05:27:25.348Z,97147.19
2022-11-16T05:28:28.021Z,97144.91
2022-11-16T05:29:31.295Z,97144.72
2022-11-16T05:30:33.945Z,97142.91
2022-11-16T05:31:40.468Z,97142.91
2022-11-16T05:32:43.887Z,97141.19
2022-11-16T05:33:46.580Z,97138.75
2022-11-16T05:34:49.746Z,97137.16
2022-11-16T05:35:52.819Z,97139.31
2022-11-16T05:36:55.999Z,97135.53
2022-11-16T05:37:58.788Z,97138.88
2022-11-16T05:39:01.641Z,97128.97
2022-11-16T05:40:05.168Z,97126.22
2022-11-16T05:41:07.841Z,97134.56
2022-11-16T05:42:10.737Z,97128.06
2022-11-16T05:43:13.350Z,97123.62
2022-11-16T05:44:16.827Z,97131.09
2022-11-16T05:45:21.215Z,97118.63
2022-11-16T05:46:25.308Z,97126.53
2022-11-16T05:47:28.728Z,97127.84
2022-11-16T05:48:31.693Z,97121.69
2022-11-16T05:49:34.660Z,97123.94
2022-11-16T05:50:42.305Z,97117.66
2022-11-16T05:51:46.733Z,97121.69
2022-11-16T05:52:49.543Z,97124.69
2022-11-16T05:53:52.236Z,97113.84
2022-11-16T05:54:54.936Z,97118.63
2022-11-16T05:55:57.742Z,97117.34
2022-11-16T05:57:00.698Z,97112.06
2022-11-16T05:58:03.374Z,97114.63
2022-11-16T05:59:06.346Z,97118.06
2022-11-16T06:00:10.215Z,97107.16
2022-11-16T06:01:12.943Z,97110.47
2022-11-16T06:02:15.693Z,97115.19
2022-11-16T06:03:18.525Z,97111.59
2022-11-16T06:04:24.782Z,97113.59
2022-11-16T06:05:27.609Z,97111.19
2022-11-16T06:06:30.341Z,97115.94
2022-11-16T06:07:39.192Z,97116.06
2022-11-16T06:08:42.099Z,97111.19
2022-11-16T06:09:44.813Z,97115.34
2022-11-16T06:10:47.393Z,97116.66
2022-11-16T06:11:49.989Z,97111.91
2022-11-16T06:12:52.663Z,97118.78
2022-11-16T06:13:55.547Z,97115.50
2022-11-16T06:14:58.507Z,97114.59
2022-11-16T06:16:07.267Z,97117.78
2022-11-16T06:17:14.663Z,97109.31
2022-11-16T06:18:17.462Z,97109.31
2022-11-16T06:19:20.224Z,97113.47
2022-11-16T06:20:22.940Z,97113.88
2022-11-16T06:21:25.622Z,97116.62
2022-11-16T06:22:28.224Z,97113.75
2022-11-16T06:23:30.921Z,97115.75
2022-11-16T06:24:33.733Z,97121.94
2022-11-16T06:25:43.288Z,97117.22
2022-11-16T06:26:47.322Z,97119.34
2022-11-16T06:27:50.375Z,97119.47
2022-11-16T06:28:55.233Z,97124.94
2022-11-16T06:29:57.884Z,97127.81
2022-11-16T06:31:00.783Z,97119.75
2022-11-16T06:32:03.507Z,97122.03
2022-11-16T06:33:06.635Z,97118.72
2022-11-16T06:34:09.268Z,97124.06
2022-11-16T06:35:11.923Z,97124.78
2022-11-16T06:36:14.618Z,97120.75
2022-11-16T06:37:17.252Z,97118.72
2022-11-16T06:38:20.784Z,97113.25
2022-11-16T06:39:23.351Z,97114.97
2022-11-16T06:40:26.358Z,97120.53
2022-11-16T06:41:29.067Z,97114.25
2022-11-16T06:42:31.841Z,97100.44
2022-11-16T06:43:38.214Z,97109.34
2022-11-16T06:44:42.296Z,97105.59
2022-11-16T06:45:52.006Z,97099.69
2022-11-16T06:46:54.598Z,97098.66
2022-11-16T06:47:57.235Z,97095.88
2022-11-16T06:48:59.953Z,97091.94
2022-11-16T06:50:02.820Z,97100.62
2022-11-16T06:51:05.813Z,97091.81
2022-11-16T06:52:08.434Z,97085.34
2022-11-16T06:53:12.251Z,97092.88
2022-11-16T06:54:14.928Z,97088.44
2022-11-16T06:55:17.686Z,97087.44
2022-11-16T06:56:20.267Z,97090.91
2022-11-16T06:57:23.671Z,97088.00
2022-11-16T06:58:26.295Z,97088.97
2022-11-16T06:59:29.085Z,97090.84
2022-11-16T07:00:31.922Z,97090.56
2022-11-16T07:01:34.912Z,97086.88
2022-11-16T07:02:38.546Z,97091.75
2022-11-16T07:03:41.230Z,97091.75
2022-11-16T07:04:44.601Z,97093.62
2022-11-16T07:05:47.314Z,97088.75
2022-11-16T07:06:50.042Z,97092.06
2022-11-16T07:07:55.899Z,97094.22
2022-11-16T07:08:58.551Z,97087.44
2022-11-16T07:10:01.628Z,97086.75
2022-11-16T07:11:06.180Z,97091.63
2022-11-16T07:12:08.754Z,97086.16
2022-11-16T07:13:11.354Z,97087.00
2022-11-16T07:14:13.951Z,97082.97
2022-11-16T07:15:20.335Z,97088.56
2022-11-16T07:16:23.169Z,97086.25
2022-11-16T07:17:25.890Z,97088.91
2022-11-16T07:18:28.904Z,97087.09
2022-11-16T07:19:31.598Z,97082.22
2022-11-16T07:20:34.989Z,97081.03
2022-11-16T07:21:38.260Z,97082.91
2022-11-16T07:22:41.272Z,97086.50
2022-11-16T07:23:44.299Z,97078.22
2022-11-16T07:24:46.918Z,97078.81
2022-11-16T07:25:49.619Z,97077.13
2022-11-16T07:26:52.305Z,97075.44
2022-11-16T07:27:57.742Z,97074.72
2022-11-16T07:29:01.690Z,97075.56
2022-11-16T07:30:04.708Z,97083.91
2022-11-16T07:31:09.653Z,97077.56
2022-11-16T07:32:12.280Z,97078.28
2022-11-16T07:33:14.924Z,97076.88
2022-11-16T07:34:17.499Z,97072.72
2022-11-16T07:35:20.309Z,97073.94
2022-11-16T07:36:22.953Z,97082.59
2022-11-16T07:37:25.725Z,97083.50
2022-11-16T07:38:28.936Z,97074.47
2022-11-16T07:39:32.364Z,97079.22
2022-11-16T07:40:35.052Z,97081.94
2022-11-16T07:41:45.268Z,97076.47
2022-11-16T07:42:48.022Z,97073.03
2022-11-16T07:43:53.184Z,97071.12
2022-11-16T07:44:56.175Z,97062.59
2022-11-16T07:47:38.271Z,97069.84
2022-11-16T07:48:43.013Z,97074.25
2022-11-16T07:49:45.604Z,97064.84
2022-11-16T07:50:49.371Z,97066.59
2022-11-16T07:51:52.066Z,97064.84
2022-11-16T07:52:57.838Z,97063.31
2022-11-16T07:54:00.574Z,97067.69
2022-11-16T07:55:03.316Z,97062.66
2022-11-16T07:56:07.101Z,97066.00
2022-11-16T07:57:10.324Z,97058.37
2022-11-16T07:58:13.275Z,97058.06
2022-11-16T07:59:15.939Z,97052.47
2022-11-16T08:00:18.781Z,97053.75
2022-11-16T08:01:21.398Z,97044.84
2022-11-16T08:02:24.083Z,97046.69
2022-11-16T08:03:26.633Z,97045.59
2022-11-16T08:04:29.171Z,97038.16
2022-11-16T08:05:31.796Z,97046.34
2022-11-16T08:06:34.445Z,97038.38
2022-11-16T08:07:37.249Z,97040.78
2022-11-16T08:08:40.543Z,97044.94
2022-11-16T08:09:43.733Z,97044.75
2022-11-16T08:10:46.449Z,97043.03
2022-11-16T08:11:49.193Z,97052.19
2022-11-16T08:12:51.884Z,97051.09
2022-11-16T08:13:54.579Z,97048.91
2022-11-16T08:14:57.214Z,97049.25
2022-11-16T08:16:05.814Z,97051.97
2022-11-16T08:17:08.745Z,97048.53
2022-11-16T08:18:11.550Z,97052.50
2022-11-16T08:19:14.206Z,97052.25
2022-11-16T08:20:17.390Z,97047.09
2022-11-16T08:21:20.052Z,97045.69
2022-11-16T08:22:22.665Z,97043.31
2022-11-16T08:23:25.345Z,97049.75
2022-11-16T08:24:28.315Z,97046.78
2022-11-16T08:25:31.131Z,97046.78
2022-11-16T08:26:33.785Z,97045.56
2022-11-16T08:27:36.446Z,97043.09
2022-11-16T08:28:39.393Z,97046.44
2022-11-16T08:29:42.270Z,97046.16
2022-11-16T08:30:48.454Z,97044.50
2022-11-16T08:31:55.676Z,97048.06
2022-11-16T08:32:58.323Z,97042.75
2022-11-16T08:34:01.157Z,97043.84
2022-11-16T08:35:04.045Z,97039.47
2022-11-16T08:36:13.751Z,97036.34
2022-11-16T08:37:17.509Z,97035.16
2022-11-16T08:38:20.715Z,97042.38
2022-11-16T08:39:23.685Z,97042.97
2022-11-16T08:40:26.317Z,97040.25
2022-11-16T08:41:29.234Z,97045.72
2022-11-16T08:42:31.844Z,97041.56
2022-11-16T08:43:36.098Z,97047.03
2022-11-16T08:44:38.840Z,97047.84
2022-11-16T08:45:41.716Z,97047.16
2022-11-16T08:46:44.385Z,97039.78
2022-11-16T08:47:48.452Z,97041.94
2022-11-16T08:48:55.917Z,97035.87
2022-11-16T08:49:58.543Z,97039.56
2022-11-16T08:51:18.456Z,97039.19
2022-11-16T08:52:22.245Z,97031.56
2022-11-16T08:53:25.159Z,97033.00
2022-11-16T08:54:31.173Z,97031.72
2022-11-16T08:55:34.304Z,97036.69
2022-11-16T08:56:37.191Z,97027.91
2022-11-16T08:57:41.100Z,97038.63
2022-11-16T08:58:44.469Z,97030.44
2022-11-16T08:59:47.546Z,97030.53
2022-11-16T09:00:51.709Z,97036.97
2022-11-16T09:01:54.525Z,97032.69
2022-11-16T09:02:57.063Z,97028.06
2022-11-16T09:04:00.324Z,97027.34
2022-11-16T09:05:03.663Z,97026.53
2022-11-16T09:06:07.282Z,97033.19
2022-11-16T09:07:10.434Z,97029.84
2022-11-16T09:08:13.224Z,97016.88
2022-11-16T09:09:15.905Z,97021.53
2022-11-16T09:10:23.096Z,97023.09
2022-11-16T09:11:26.077Z,97020.84
2022-11-16T09:12:28.679Z,97022.41
2022-11-16T09:13:31.390Z,97014.41
2022-11-16T09:14:34.132Z,97017.41
2022-11-16T09:15:36.711Z,97019.09
2022-11-16T09:16:41.161Z,97011.22
2022-11-16T09:17:43.782Z,97022.16
2022-11-16T09:18:48.247Z,97021.22
2022-11-16T09:19:50.885Z,97026.25
2022-11-16T09:20:53.753Z,97020.41
2022-11-16T09:21:57.340Z,97028.94
2022-11-16T09:23:00.007Z,97023.47
2022-11-16T09:24:03.163Z,97020.72
2022-11-16T09:25:06.562Z,97014.53
2022-11-16T09:26:09.372Z,97020.37
2022-11-16T09:27:12.065Z,97019.06
2022-11-16T09:28:16.316Z,97019.88
2022-11-16T09:29:18.973Z,97022.28
2022-11-16T09:30:21.661Z,97024.19
2022-11-16T09:31:27.802Z,97023.97
2022-11-16T09:32:30.433Z,97017.28
2022-11-16T09:33:34.524Z,97022.50
2022-11-16T09:34:37.605Z,97019.66
2022-11-16T09:35:40.585Z,97013.34
2022-11-16T09:36:43.477Z,97018.22
2022-11-16T09:37:46.223Z,97017.03
2022-11-16T09:40:17.084Z,97008.72
2022-11-16T09:41:57.175Z,97011.44
2022-11-16T09:43:09.186Z,97012.63
2022-11-16T09:44:32.645Z,97008.09
2022-11-16T09:45:40.974Z,97007.97
2022-11-16T09:46:47.565Z,97008.81
2022-11-16T09:47:57.786Z,97004.66
2022-11-16T09:49:10.511Z,97002.62
2022-11-16T09:50:41.715Z,96995.72
2022-11-16T09:51:49.820Z,96993.47
2022-11-16T09:52:57.271Z,96990.97
2022-11-16T09:54:07.917Z,96989.66
2022-11-16T09:55:33.895Z,96985.16
2022-11-16T09:56:41.387Z,96985.50
2022-11-16T09:57:45.354Z,96982.41
2022-11-16T09:59:18.469Z,96989.66
2022-11-16T10:00:23.879Z,96981.81
2022-11-16T10:01:31.288Z,96977.06
2022-11-16T10:02:43.456Z,96980.16
2022-11-16T10:03:50.675Z,96978.62
2022-11-16T10:05:08.315Z,96979.91
2022-11-16T10:06:22.007Z,96975.63
2022-11-16T10:07:42.091Z,96976.00
2022-11-16T10:08:47.712Z,96966.13
2022-11-16T10:09:52.059Z,96971.12
2022-11-16T10:11:09.391Z,96967.06
2022-11-16T10:12:27.225Z,96968.13
2022-11-16T10:14:04.227Z,96959.44
2022-11-16T10:15:09.970Z,96964.09
2022-11-16T10:16:38.391Z,96957.31
2022-11-16T10:17:53.061Z,96947.78
2022-11-16T10:19:13.772Z,96948.03
2022-11-16T10:20:30.481Z,96948.03
2022-11-16T10:21:48.537Z,96945.53
2022-11-16T10:23:07.244Z,96951.84
2022-11-16T10:24:26.460Z,96954.91
2022-11-16T10:25:42.554Z,96952.69
2022-11-16T10:26:59.561Z,96958.00
2022-11-16T10:28:13.803Z,96952.53
2022-11-16T10:29:16.434Z,96958.00
2022-11-16T10:30:22.074Z,96960.28
2022-11-16T10:31:46.610Z,96956.22
2022-11-16T10:33:02.822Z,96963.59
2022-11-16T10:34:16.655Z,96960.37
2022-11-16T10:35:34.763Z,96955.50
2022-11-16T10:36:38.617Z,96949.59
2022-11-16T10:37:48.042Z,96947.31
2022-11-16T10:38:50.886Z,96944.13
2022-11-16T10:39:54.197Z,96937.09
2022-11-16T10:41:30.767Z,96936.72
2022-11-16T10:42:39.444Z,96937.53
2022-11-16T10:43:43.799Z,96931.00
2022-11-16T10:45:06.245Z,96929.00
2022-11-16T10:46:41.043Z,96926.50
2022-11-16T10:47:53.410Z,96919.50
2022-11-16T10:49:14.309Z,96921.84
2022-11-16T10:50:32.607Z,96917.81
2022-11-16T10:51:35.272Z,96911.75
2022-11-16T10:52:37.960Z,96921.50
2022-11-16T10:53:43.930Z,96916.88
2022-11-16T10:54:46.519Z,96904.72
2022-11-16T10:56:10.606Z,96911.03
2022-11-16T10:57:14.942Z,96905.31
2022-11-16T10:58:17.676Z,96897.84
2022-11-16T10:59:20.845Z,96895.94
2022-11-16T11:00:42.120Z,96897.13
2022-11-16T11:02:07.944Z,96886.66
2022-11-16T11:03:12.279Z,96895.69
2022-11-16T11:04:21.393Z,96901.06
2022-11-16T11:05:25.442Z,96899.50
2022-11-16T11:06:28.448Z,96897.38
2022-11-16T11:07:40.099Z,96893.56
2022-11-16T11:08:42.982Z,96896.16
2022-11-16T11:09:52.554Z,96897.00
2022-11-16T11:11:24.997Z,96893.56
2022-11-16T11:12:42.677Z,96891.03
2022-11-16T11:13:45.193Z,96895.22
2022-11-16T11:15:06.325Z,96893.56
2022-11-16T11:16:18.489Z,96887.84
2022-11-16T11:17:21.148Z,96888.31
2022-11-16T11:18:24.479Z,96885.34
2022-11-16T11:19:28.971Z,96884.13
2022-11-16T11:20:31.568Z,96885.44
2022-11-16T11:21:34.725Z,96885.44
2022-11-16T11:22:48.491Z,96882.47
2022-11-16T11:23:54.351Z,96884.50
2022-11-16T11:24:57.185Z,96876.53
2022-11-16T11:26:00.892Z,96879.28
2022-11-16T11:27:03.844Z,96874.28
2022-11-16T11:28:32.078Z,96871.09
2022-11-16T11:29:39.117Z,96873.34
2022-11-16T11:30:41.876Z,96869.41
2022-11-16T11:31:48.993Z,96870.63
2022-11-16T11:32:53.284Z,96867.16
2022-11-16T11:33:59.808Z,96869.53
2022-11-16T11:35:03.751Z,96866.69
2022-11-16T11:36:18.826Z,96860.25
2022-11-16T11:37:39.920Z,96862.53
2022-11-16T11:38:59.431Z,96864.19
2022-11-16T11:40:19.078Z,96859.69
2022-11-16T11:41:21.920Z,96860.50
2022-11-16T11:42:25.190Z,96861.69
2022-11-16T11:43:29.539Z,96853.34
2022-11-16T11:44:54.662Z,96848.13
2022-11-16T11:46:13.250Z,96843.34
2022-11-16T11:48:02.527Z,96846.00
2022-11-16T11:49:32.000Z,96851.31
2022-11-16T11:51:08.107Z,96848.59
2022-11-16T11:52:19.736Z,96842.06
2022-11-16T11:53:22.708Z,96847.88
2022-11-16T11:54:31.326Z,96842.06
2022-11-16T11:55:34.973Z,96843.47
2022-11-16T11:56:38.148Z,96839.09
2022-11-16T11:57:44.127Z,96850.25
2022-11-16T11:58:48.184Z,96847.88
2022-11-16T11:59:55.207Z,96853.00
2022-11-16T12:01:47.305Z,96849.53
2022-11-16T12:03:11.647Z,96843.72
2022-11-16T12:04:48.631Z,96847.53
2022-11-16T12:06:28.448Z,96851.44
2022-11-16T12:07:52.600Z,96851.94
2022-11-16T12:09:12.656Z,96846.00
2022-11-16T12:10:52.093Z,96849.09
2022-11-16T12:12:14.969Z,96849.31
2022-11-16T12:13:36.589Z,96848.59
2022-11-16T12:14:58.670Z,96848.00
2022-11-16T12:16:19.347Z,96846.09
2022-11-16T12:17:22.106Z,96853.81
2022-11-16T12:18:39.537Z,96849.66
2022-11-16T12:20:13.297Z,96846.81
2022-11-16T12:21:34.083Z,96847.41
2022-11-16T12:23:14.925Z,96845.37
2022-11-16T12:24:29.453Z,96848.22
2022-11-16T12:25:43.896Z,96846.81
2022-11-16T12:27:01.471Z,96845.63
2022-11-16T12:28:53.331Z,96845.25
2022-11-16T12:30:02.909Z,96837.53
2022-11-16T12:31:37.206Z,96848.84
2022-11-16T12:33:02.674Z,96843.72
2022-11-16T12:34:32.924Z,96833.25
2022-11-16T12:35:52.533Z,96833.25
2022-11-16T12:37:17.027Z,96831.00
2022-11-16T12:38:41.141Z,96836.25
2022-11-16T12:39:50.872Z,96837.66
2022-11-16T12:40:57.857Z,96829.94
2022-11-16T12:42:31.673Z,96827.06
2022-11-16T12:44:08.129Z,96830.03
2022-11-16T12:45:16.753Z,96830.84
2022-11-16T12:46:38.062Z,96823.75
2022-11-16T12:48:08.779Z,96818.88
2022-11-16T12:49:33.183Z,96815.19
2022-11-16T12:50:54.681Z,96813.97
2022-11-16T12:52:06.269Z,96811.12
2022-11-16T12:53:08.761Z,96814.09
2022-11-16T12:54:57.673Z,96812.94
2022-11-16T12:56:07.834Z,96812.34
2022-11-16T12:57:47.895Z,96815.19
2022-11-16T12:59:06.064Z,96812.22
2022-11-16T13:00:12.927Z,96811.50
2022-11-16T13:01:29.786Z,96812.22
2022-11-16T13:02:45.021Z,96816.25
2022-11-16T13:03:59.502Z,96818.16
2022-11-16T13:05:14.512Z,96817.91
2022-11-16T13:06:22.307Z,96816.00
2022-11-16T13:07:32.094Z,96817.78
2022-11-16T13:08:41.947Z,96813.19
2022-11-16T13:09:49.345Z,96821.50
2022-11-16T13:10:59.107Z,96819.00
2022-11-16T13:12:06.865Z,96816.72
2022-11-16T13:13:35.847Z,96824.09
2022-11-16T13:14:43.306Z,96815.28
2022-11-16T13:15:48.158Z,96822.66
2022-11-16T13:16:52.343Z,96815.78
2022-11-16T13:18:00.651Z,96817.44
2022-11-16T13:19:07.484Z,96816.97
2022-11-16T13:20:24.446Z,96816.59
2022-11-16T13:21:42.285Z,96822.78
2022-11-16T13:22:58.522Z,96820.28
2022-11-16T13:24:27.340Z,96815.06
2022-11-16T13:26:10.365Z,96813.41
2022-11-16T13:27:53.935Z,96824.69
2022-11-16T13:29:24.735Z,96821.84
2022-11-16T13:30:44.208Z,96821.38
2022-11-16T13:32:13.604Z,96823.28